sensor_id;sensor_type;location;lat;lon;timestamp;P1;durP1;ratioP1;P2;durP2;ratioP2
44987;SDS011;35735;52.226;21.254;2022-11-23T00:01:43;57.20;;;28.08;;
44987;SDS011;35735;52.226;21.254;2022-11-23T00:06:43;59.47;;;27.40;;
44987;SDS011;35735;52.226;21.254;2022-11-23T00:11:44;60.88;;;29.48;;
44987;SDS011;35735;52.226;21.254;2022-11-23T00:16:44;59.92;;;28.45;;
44987;SDS011;35735;52.226;21.254;2022-11-23T00:21:45;55.60;;;27.87;;
44987;SDS011;35735;52.226;21.254;2022-11-23T00:26:45;59.42;;;28.95;;
44987;SDS011;35735;52.226;21.254;2022-11-23T00:31:46;59.28;;;28.20;;
44987;SDS011;35735;52.226;21.254;2022-11-23T00:36:46;61.63;;;29.05;;
44987;SDS011;35735;52.226;21.254;2022-11-23T00:41:47;57.67;;;28.20;;
44987;SDS011;35735;52.226;21.254;2022-11-23T00:46:47;63.10;;;29.02;;
44987;SDS011;35735;52.226;21.254;2022-11-23T00:51:48;61.42;;;28.65;;
44987;SDS011;35735;52.226;21.254;2022-11-23T00:56:48;59.78;;;29.50;;
44987;SDS011;35735;52.226;21.254;2022-11-23T01:01:49;64.18;;;29.87;;
44987;SDS011;35735;52.226;21.254;2022-11-23T01:06:50;61.15;;;29.73;;
44987;SDS011;35735;52.226;21.254;2022-11-23T01:11:55;62.58;;;30.30;;
44987;SDS011;35735;52.226;21.254;2022-11-23T01:16:56;58.38;;;28.58;;
44987;SDS011;35735;52.226;21.254;2022-11-23T01:21:56;59.55;;;27.85;;
44987;SDS011;35735;52.226;21.254;2022-11-23T01:26:57;58.60;;;28.85;;
44987;SDS011;35735;52.226;21.254;2022-11-23T01:31:57;58.00;;;27.33;;
44987;SDS011;35735;52.226;21.254;2022-11-23T01:36:58;57.15;;;27.98;;
44987;SDS011;35735;52.226;21.254;2022-11-23T01:41:58;52.42;;;26.77;;
44987;SDS011;35735;52.226;21.254;2022-11-23T01:47:00;53.33;;;26.20;;
44987;SDS011;35735;52.226;21.254;2022-11-23T01:52:05;58.80;;;27.75;;
44987;SDS011;35735;52.226;21.254;2022-11-23T01:57:10;51.83;;;25.15;;
44987;SDS011;35735;52.226;21.254;2022-11-23T02:02:17;55.15;;;26.12;;
44987;SDS011;35735;52.226;21.254;2022-11-23T02:07:18;54.42;;;26.60;;
44987;SDS011;35735;52.226;21.254;2022-11-23T02:12:21;50.35;;;24.77;;
44987;SDS011;35735;52.226;21.254;2022-11-23T02:17:21;50.22;;;26.08;;
44987;SDS011;35735;52.226;21.254;2022-11-23T02:22:29;53.70;;;25.25;;
44987;SDS011;35735;52.226;21.254;2022-11-23T02:27:41;53.28;;;25.77;;
44987;SDS011;35735;52.226;21.254;2022-11-23T02:32:42;51.42;;;25.27;;
44987;SDS011;35735;52.226;21.254;2022-11-23T02:37:43;50.47;;;24.73;;
44987;SDS011;35735;52.226;21.254;2022-11-23T02:42:44;49.47;;;23.45;;
44987;SDS011;35735;52.226;21.254;2022-11-23T02:47:45;42.72;;;22.77;;
44987;SDS011;35735;52.226;21.254;2022-11-23T02:52:45;51.85;;;25.42;;
44987;SDS011;35735;52.226;21.254;2022-11-23T02:57:46;46.30;;;23.10;;
44987;SDS011;35735;52.226;21.254;2022-11-23T03:02:46;35.55;;;18.00;;
44987;SDS011;35735;52.226;21.254;2022-11-23T03:07:47;32.33;;;16.25;;
44987;SDS011;35735;52.226;21.254;2022-11-23T03:12:47;35.55;;;18.33;;
44987;SDS011;35735;52.226;21.254;2022-11-23T03:17:48;33.47;;;17.30;;
44987;SDS011;35735;52.226;21.254;2022-11-23T03:22:49;32.33;;;17.17;;
44987;SDS011;35735;52.226;21.254;2022-11-23T03:27:49;33.88;;;16.77;;
44987;SDS011;35735;52.226;21.254;2022-11-23T03:32:50;32.38;;;17.17;;
44987;SDS011;35735;52.226;21.254;2022-11-23T03:37:50;30.52;;;16.60;;
44987;SDS011;35735;52.226;21.254;2022-11-23T03:42:51;32.03;;;16.40;;
44987;SDS011;35735;52.226;21.254;2022-11-23T03:47:51;30.90;;;17.05;;
44987;SDS011;35735;52.226;21.254;2022-11-23T03:52:52;32.30;;;17.23;;
44987;SDS011;35735;52.226;21.254;2022-11-23T03:57:52;30.75;;;16.70;;
44987;SDS011;35735;52.226;21.254;2022-11-23T04:02:53;25.37;;;14.15;;
44987;SDS011;35735;52.226;21.254;2022-11-23T04:07:54;24.90;;;14.35;;
44987;SDS011;35735;52.226;21.254;2022-11-23T04:12:54;24.15;;;13.70;;
44987;SDS011;35735;52.226;21.254;2022-11-23T04:17:55;27.08;;;14.27;;
44987;SDS011;35735;52.226;21.254;2022-11-23T04:22:55;27.52;;;15.52;;
44987;SDS011;35735;52.226;21.254;2022-11-23T04:27:56;24.52;;;14.25;;
44987;SDS011;35735;52.226;21.254;2022-11-23T04:32:56;25.85;;;14.23;;
44987;SDS011;35735;52.226;21.254;2022-11-23T04:37:57;30.88;;;15.82;;
44987;SDS011;35735;52.226;21.254;2022-11-23T04:42:58;26.10;;;14.27;;
44987;SDS011;35735;52.226;21.254;2022-11-23T04:47:59;26.70;;;14.55;;
44987;SDS011;35735;52.226;21.254;2022-11-23T04:52:59;24.37;;;13.10;;
44987;SDS011;35735;52.226;21.254;2022-11-23T04:58:00;23.67;;;13.52;;
44987;SDS011;35735;52.226;21.254;2022-11-23T05:03:00;25.35;;;14.48;;
44987;SDS011;35735;52.226;21.254;2022-11-23T05:08:01;24.37;;;13.80;;
44987;SDS011;35735;52.226;21.254;2022-11-23T05:13:02;25.58;;;14.18;;
44987;SDS011;35735;52.226;21.254;2022-11-23T05:18:04;24.00;;;13.60;;
44987;SDS011;35735;52.226;21.254;2022-11-23T05:23:06;25.05;;;13.98;;
44987;SDS011;35735;52.226;21.254;2022-11-23T05:28:08;22.00;;;12.65;;
44987;SDS011;35735;52.226;21.254;2022-11-23T05:33:15;19.75;;;11.85;;
44987;SDS011;35735;52.226;21.254;2022-11-23T05:38:15;22.77;;;13.45;;
44987;SDS011;35735;52.226;21.254;2022-11-23T05:43:16;22.85;;;13.07;;
44987;SDS011;35735;52.226;21.254;2022-11-23T05:48:16;23.52;;;13.55;;
44987;SDS011;35735;52.226;21.254;2022-11-23T05:53:17;24.10;;;14.25;;
44987;SDS011;35735;52.226;21.254;2022-11-23T05:58:18;25.05;;;13.75;;
44987;SDS011;35735;52.226;21.254;2022-11-23T06:03:18;24.65;;;13.85;;
44987;SDS011;35735;52.226;21.254;2022-11-23T06:08:19;25.20;;;14.80;;
44987;SDS011;35735;52.226;21.254;2022-11-23T06:13:19;29.35;;;15.52;;
44987;SDS011;35735;52.226;21.254;2022-11-23T06:18:20;30.08;;;17.05;;
44987;SDS011;35735;52.226;21.254;2022-11-23T06:23:21;27.85;;;15.35;;
44987;SDS011;35735;52.226;21.254;2022-11-23T06:28:21;28.15;;;15.48;;
44987;SDS011;35735;52.226;21.254;2022-11-23T06:33:22;26.60;;;14.68;;
44987;SDS011;35735;52.226;21.254;2022-11-23T06:38:22;33.22;;;16.40;;
44987;SDS011;35735;52.226;21.254;2022-11-23T06:43:23;27.15;;;15.32;;
44987;SDS011;35735;52.226;21.254;2022-11-23T06:48:23;27.95;;;15.38;;
44987;SDS011;35735;52.226;21.254;2022-11-23T06:53:24;26.75;;;15.13;;
44987;SDS011;35735;52.226;21.254;2022-11-23T06:58:25;27.00;;;15.32;;
44987;SDS011;35735;52.226;21.254;2022-11-23T07:03:26;25.65;;;14.50;;
44987;SDS011;35735;52.226;21.254;2022-11-23T07:08:27;25.00;;;13.90;;
44987;SDS011;35735;52.226;21.254;2022-11-23T07:13:28;23.23;;;13.62;;
44987;SDS011;35735;52.226;21.254;2022-11-23T07:18:28;23.17;;;13.62;;
44987;SDS011;35735;52.226;21.254;2022-11-23T07:23:29;24.67;;;13.95;;
44987;SDS011;35735;52.226;21.254;2022-11-23T07:28:29;24.52;;;14.52;;
44987;SDS011;35735;52.226;21.254;2022-11-23T07:33:30;26.08;;;14.85;;
44987;SDS011;35735;52.226;21.254;2022-11-23T07:38:31;24.85;;;14.02;;
44987;SDS011;35735;52.226;21.254;2022-11-23T07:43:31;26.50;;;14.57;;
44987;SDS011;35735;52.226;21.254;2022-11-23T07:48:32;22.95;;;12.93;;
44987;SDS011;35735;52.226;21.254;2022-11-23T07:53:32;23.23;;;13.88;;
44987;SDS011;35735;52.226;21.254;2022-11-23T07:58:33;23.38;;;13.18;;
44987;SDS011;35735;52.226;21.254;2022-11-23T08:03:33;22.48;;;12.82;;
44987;SDS011;35735;52.226;21.254;2022-11-23T08:08:34;20.67;;;13.25;;
44987;SDS011;35735;52.226;21.254;2022-11-23T08:13:34;23.08;;;13.98;;
44987;SDS011;35735;52.226;21.254;2022-11-23T08:18:35;23.52;;;12.30;;
44987;SDS011;35735;52.226;21.254;2022-11-23T08:23:36;18.37;;;12.00;;
44987;SDS011;35735;52.226;21.254;2022-11-23T08:28:36;19.37;;;11.73;;
44987;SDS011;35735;52.226;21.254;2022-11-23T08:33:38;19.60;;;12.07;;
44987;SDS011;35735;52.226;21.254;2022-11-23T08:38:39;24.20;;;14.70;;
44987;SDS011;35735;52.226;21.254;2022-11-23T08:43:40;22.23;;;13.38;;
44987;SDS011;35735;52.226;21.254;2022-11-23T08:48:41;24.37;;;14.35;;
44987;SDS011;35735;52.226;21.254;2022-11-23T08:53:41;24.02;;;14.20;;
44987;SDS011;35735;52.226;21.254;2022-11-23T08:58:42;25.90;;;15.48;;
44987;SDS011;35735;52.226;21.254;2022-11-23T09:03:43;30.00;;;16.65;;
44987;SDS011;35735;52.226;21.254;2022-11-23T09:08:44;28.70;;;17.40;;
44987;SDS011;35735;52.226;21.254;2022-11-23T09:13:44;22.50;;;13.73;;
44987;SDS011;35735;52.226;21.254;2022-11-23T09:18:45;30.12;;;17.30;;
44987;SDS011;35735;52.226;21.254;2022-11-23T09:23:46;24.70;;;15.40;;
44987;SDS011;35735;52.226;21.254;2022-11-23T09:28:46;20.40;;;12.43;;
44987;SDS011;35735;52.226;21.254;2022-11-23T09:33:50;21.30;;;14.00;;
44987;SDS011;35735;52.226;21.254;2022-11-23T09:38:52;23.27;;;13.82;;
44987;SDS011;35735;52.226;21.254;2022-11-23T09:44:04;22.73;;;13.20;;
44987;SDS011;35735;52.226;21.254;2022-11-23T09:49:32;21.48;;;13.13;;
44987;SDS011;35735;52.226;21.254;2022-11-23T09:54:45;21.48;;;13.20;;
44987;SDS011;35735;52.226;21.254;2022-11-23T09:59:59;21.02;;;13.20;;
44987;SDS011;35735;52.226;21.254;2022-11-23T10:05:05;24.75;;;13.73;;
44987;SDS011;35735;52.226;21.254;2022-11-23T10:26:02;21.02;;;13.15;;
44987;SDS011;35735;52.226;21.254;2022-11-23T10:31:13;23.10;;;13.48;;
44987;SDS011;35735;52.226;21.254;2022-11-23T10:36:17;21.10;;;12.25;;
44987;SDS011;35735;52.226;21.254;2022-11-23T10:41:17;21.52;;;13.20;;
44987;SDS011;35735;52.226;21.254;2022-11-23T10:46:25;22.20;;;14.10;;
44987;SDS011;35735;52.226;21.254;2022-11-23T10:51:33;24.42;;;14.70;;
44987;SDS011;35735;52.226;21.254;2022-11-23T10:56:34;23.87;;;14.85;;
44987;SDS011;35735;52.226;21.254;2022-11-23T11:01:35;20.25;;;13.38;;
44987;SDS011;35735;52.226;21.254;2022-11-23T11:06:35;22.75;;;13.75;;
44987;SDS011;35735;52.226;21.254;2022-11-23T11:11:39;24.42;;;15.73;;
44987;SDS011;35735;52.226;21.254;2022-11-23T11:16:53;30.58;;;18.27;;
44987;SDS011;35735;52.226;21.254;2022-11-23T11:21:59;32.00;;;18.67;;
44987;SDS011;35735;52.226;21.254;2022-11-23T11:27:05;31.10;;;19.05;;
44987;SDS011;35735;52.226;21.254;2022-11-23T11:32:21;28.83;;;17.45;;
44987;SDS011;35735;52.226;21.254;2022-11-23T11:37:35;30.73;;;17.77;;
44987;SDS011;35735;52.226;21.254;2022-11-23T11:42:58;32.92;;;18.65;;
44987;SDS011;35735;52.226;21.254;2022-11-23T11:48:23;31.67;;;18.20;;
44987;SDS011;35735;52.226;21.254;2022-11-23T11:53:35;30.58;;;18.67;;
44987;SDS011;35735;52.226;21.254;2022-11-23T11:58:47;31.23;;;17.58;;
44987;SDS011;35735;52.226;21.254;2022-11-23T12:03:56;32.13;;;18.77;;
44987;SDS011;35735;52.226;21.254;2022-11-23T12:09:08;40.65;;;21.92;;
44987;SDS011;35735;52.226;21.254;2022-11-23T12:14:15;37.38;;;21.58;;
44987;SDS011;35735;52.226;21.254;2022-11-23T12:19:17;40.50;;;22.10;;
44987;SDS011;35735;52.226;21.254;2022-11-23T12:36:05;41.90;;;24.23;;
44987;SDS011;35735;52.226;21.254;2022-11-23T12:46:02;39.45;;;22.55;;
44987;SDS011;35735;52.226;21.254;2022-11-23T12:51:33;42.90;;;23.77;;
44987;SDS011;35735;52.226;21.254;2022-11-23T13:02:46;49.17;;;24.55;;
44987;SDS011;35735;52.226;21.254;2022-11-23T13:07:56;41.37;;;24.77;;
44987;SDS011;35735;52.226;21.254;2022-11-23T13:18:51;44.78;;;25.35;;
44987;SDS011;35735;52.226;21.254;2022-11-23T13:24:22;35.90;;;20.17;;
44987;SDS011;35735;52.226;21.254;2022-11-23T13:34:50;44.42;;;23.62;;
44987;SDS011;35735;52.226;21.254;2022-11-23T13:50:36;36.85;;;19.33;;
44987;SDS011;35735;52.226;21.254;2022-11-23T13:55:56;51.70;;;26.95;;
44987;SDS011;35735;52.226;21.254;2022-11-23T14:01:44;48.55;;;26.00;;
44987;SDS011;35735;52.226;21.254;2022-11-23T14:34:45;50.78;;;25.85;;
44987;SDS011;35735;52.226;21.254;2022-11-23T14:39:58;55.22;;;27.37;;
44987;SDS011;35735;52.226;21.254;2022-11-23T14:45:05;58.22;;;29.08;;
44987;SDS011;35735;52.226;21.254;2022-11-23T14:50:21;58.60;;;25.98;;
44987;SDS011;35735;52.226;21.254;2022-11-23T14:55:26;53.53;;;26.37;;
44987;SDS011;35735;52.226;21.254;2022-11-23T15:00:30;47.00;;;22.75;;
44987;SDS011;35735;52.226;21.254;2022-11-23T15:05:35;55.72;;;27.08;;
44987;SDS011;35735;52.226;21.254;2022-11-23T15:16:02;50.78;;;25.40;;
44987;SDS011;35735;52.226;21.254;2022-11-23T15:31:34;66.53;;;29.67;;
44987;SDS011;35735;52.226;21.254;2022-11-23T15:36:36;53.10;;;25.83;;
44987;SDS011;35735;52.226;21.254;2022-11-23T15:41:38;59.75;;;26.95;;
44987;SDS011;35735;52.226;21.254;2022-11-23T15:46:39;58.22;;;27.77;;
44987;SDS011;35735;52.226;21.254;2022-11-23T15:51:41;45.92;;;24.23;;
44987;SDS011;35735;52.226;21.254;2022-11-23T15:56:44;44.00;;;23.05;;
44987;SDS011;35735;52.226;21.254;2022-11-23T16:01:46;57.28;;;26.95;;
44987;SDS011;35735;52.226;21.254;2022-11-23T16:06:47;45.00;;;22.55;;
44987;SDS011;35735;52.226;21.254;2022-11-23T16:11:48;43.65;;;23.60;;
44987;SDS011;35735;52.226;21.254;2022-11-23T16:16:57;50.42;;;26.67;;
44987;SDS011;35735;52.226;21.254;2022-11-23T16:22:05;54.78;;;27.55;;
44987;SDS011;35735;52.226;21.254;2022-11-23T16:27:13;45.25;;;23.95;;
44987;SDS011;35735;52.226;21.254;2022-11-23T16:32:21;41.40;;;22.98;;
44987;SDS011;35735;52.226;21.254;2022-11-23T16:37:29;48.17;;;26.35;;
44987;SDS011;35735;52.226;21.254;2022-11-23T16:42:30;46.25;;;25.08;;
44987;SDS011;35735;52.226;21.254;2022-11-23T16:47:30;42.83;;;24.42;;
44987;SDS011;35735;52.226;21.254;2022-11-23T16:52:31;36.40;;;21.25;;
44987;SDS011;35735;52.226;21.254;2022-11-23T16:57:32;46.90;;;24.42;;
44987;SDS011;35735;52.226;21.254;2022-11-23T17:02:34;34.40;;;19.83;;
44987;SDS011;35735;52.226;21.254;2022-11-23T17:07:35;48.83;;;26.05;;
44987;SDS011;35735;52.226;21.254;2022-11-23T17:12:35;40.95;;;22.50;;
44987;SDS011;35735;52.226;21.254;2022-11-23T17:17:37;34.72;;;20.08;;
44987;SDS011;35735;52.226;21.254;2022-11-23T17:22:38;33.33;;;19.73;;
44987;SDS011;35735;52.226;21.254;2022-11-23T17:27:39;32.03;;;19.70;;
44987;SDS011;35735;52.226;21.254;2022-11-23T17:32:40;37.47;;;24.77;;
44987;SDS011;35735;52.226;21.254;2022-11-23T17:37:41;35.47;;;20.90;;
44987;SDS011;35735;52.226;21.254;2022-11-23T17:42:42;35.97;;;22.02;;
44987;SDS011;35735;52.226;21.254;2022-11-23T17:47:43;37.05;;;22.00;;
44987;SDS011;35735;52.226;21.254;2022-11-23T17:52:44;40.30;;;23.08;;
44987;SDS011;35735;52.226;21.254;2022-11-23T17:57:45;34.15;;;19.62;;
44987;SDS011;35735;52.226;21.254;2022-11-23T18:02:46;43.38;;;24.48;;
44987;SDS011;35735;52.226;21.254;2022-11-23T18:07:47;49.10;;;25.35;;
44987;SDS011;35735;52.226;21.254;2022-11-23T18:12:49;44.60;;;24.83;;
44987;SDS011;35735;52.226;21.254;2022-11-23T18:17:50;37.72;;;21.23;;
44987;SDS011;35735;52.226;21.254;2022-11-23T18:22:50;39.58;;;21.17;;
44987;SDS011;35735;52.226;21.254;2022-11-23T18:27:51;37.40;;;22.10;;
44987;SDS011;35735;52.226;21.254;2022-11-23T18:32:51;41.15;;;22.80;;
44987;SDS011;35735;52.226;21.254;2022-11-23T18:37:52;43.80;;;22.90;;
44987;SDS011;35735;52.226;21.254;2022-11-23T18:42:53;48.63;;;24.87;;
44987;SDS011;35735;52.226;21.254;2022-11-23T18:47:53;47.40;;;26.05;;
44987;SDS011;35735;52.226;21.254;2022-11-23T18:52:54;48.95;;;26.80;;
44987;SDS011;35735;52.226;21.254;2022-11-23T18:57:54;57.88;;;26.92;;
44987;SDS011;35735;52.226;21.254;2022-11-23T19:02:56;40.60;;;23.87;;
44987;SDS011;35735;52.226;21.254;2022-11-23T19:07:59;36.55;;;20.52;;
44987;SDS011;35735;52.226;21.254;2022-11-23T19:13:05;41.17;;;22.50;;
44987;SDS011;35735;52.226;21.254;2022-11-23T19:18:05;42.42;;;22.80;;
44987;SDS011;35735;52.226;21.254;2022-11-23T19:23:06;41.30;;;22.25;;
44987;SDS011;35735;52.226;21.254;2022-11-23T19:28:07;37.85;;;20.50;;
44987;SDS011;35735;52.226;21.254;2022-11-23T19:33:07;40.12;;;22.23;;
44987;SDS011;35735;52.226;21.254;2022-11-23T19:38:08;36.85;;;21.10;;
44987;SDS011;35735;52.226;21.254;2022-11-23T19:43:08;40.05;;;22.13;;
44987;SDS011;35735;52.226;21.254;2022-11-23T19:48:09;43.25;;;22.42;;
44987;SDS011;35735;52.226;21.254;2022-11-23T19:53:09;39.00;;;22.15;;
44987;SDS011;35735;52.226;21.254;2022-11-23T19:58:10;36.78;;;21.73;;
44987;SDS011;35735;52.226;21.254;2022-11-23T20:03:11;37.10;;;20.75;;
44987;SDS011;35735;52.226;21.254;2022-11-23T20:08:12;38.33;;;22.30;;
44987;SDS011;35735;52.226;21.254;2022-11-23T20:13:13;41.50;;;23.52;;
44987;SDS011;35735;52.226;21.254;2022-11-23T20:18:14;40.53;;;22.67;;
44987;SDS011;35735;52.226;21.254;2022-11-23T20:23:16;39.22;;;21.85;;
44987;SDS011;35735;52.226;21.254;2022-11-23T20:28:16;32.45;;;18.35;;
44987;SDS011;35735;52.226;21.254;2022-11-23T20:33:17;30.60;;;17.27;;
44987;SDS011;35735;52.226;21.254;2022-11-23T20:38:17;28.85;;;16.60;;
44987;SDS011;35735;52.226;21.254;2022-11-23T20:43:18;30.58;;;17.23;;
44987;SDS011;35735;52.226;21.254;2022-11-23T20:48:18;30.55;;;18.08;;
44987;SDS011;35735;52.226;21.254;2022-11-23T20:53:19;32.90;;;17.75;;
44987;SDS011;35735;52.226;21.254;2022-11-23T20:58:20;28.12;;;17.33;;
44987;SDS011;35735;52.226;21.254;2022-11-23T21:03:20;28.70;;;16.83;;
44987;SDS011;35735;52.226;21.254;2022-11-23T21:08:21;32.97;;;18.00;;
44987;SDS011;35735;52.226;21.254;2022-11-23T21:13:21;30.65;;;18.02;;
44987;SDS011;35735;52.226;21.254;2022-11-23T21:18:22;30.55;;;17.98;;
44987;SDS011;35735;52.226;21.254;2022-11-23T21:23:22;34.13;;;19.10;;
44987;SDS011;35735;52.226;21.254;2022-11-23T21:28:23;34.97;;;20.15;;
44987;SDS011;35735;52.226;21.254;2022-11-23T21:33:23;31.70;;;18.50;;
44987;SDS011;35735;52.226;21.254;2022-11-23T21:38:24;32.47;;;18.50;;
44987;SDS011;35735;52.226;21.254;2022-11-23T21:43:25;33.05;;;18.98;;
44987;SDS011;35735;52.226;21.254;2022-11-23T21:48:26;29.58;;;17.02;;
44987;SDS011;35735;52.226;21.254;2022-11-23T21:53:27;31.17;;;18.50;;
44987;SDS011;35735;52.226;21.254;2022-11-23T21:58:28;29.48;;;17.08;;
44987;SDS011;35735;52.226;21.254;2022-11-23T22:03:31;32.42;;;17.90;;
44987;SDS011;35735;52.226;21.254;2022-11-23T22:08:42;33.45;;;18.17;;
44987;SDS011;35735;52.226;21.254;2022-11-23T22:13:44;36.70;;;19.42;;
44987;SDS011;35735;52.226;21.254;2022-11-23T22:18:46;37.42;;;20.23;;
44987;SDS011;35735;52.226;21.254;2022-11-23T22:23:47;39.15;;;21.12;;
44987;SDS011;35735;52.226;21.254;2022-11-23T22:28:49;34.55;;;19.67;;
44987;SDS011;35735;52.226;21.254;2022-11-23T22:33:51;31.95;;;18.70;;
44987;SDS011;35735;52.226;21.254;2022-11-23T22:38:52;33.30;;;18.37;;
44987;SDS011;35735;52.226;21.254;2022-11-23T22:43:54;31.60;;;18.92;;
44987;SDS011;35735;52.226;21.254;2022-11-23T22:48:55;36.00;;;19.37;;
44987;SDS011;35735;52.226;21.254;2022-11-23T22:53:56;33.75;;;18.05;;
44987;SDS011;35735;52.226;21.254;2022-11-23T22:58:58;32.67;;;17.98;;
44987;SDS011;35735;52.226;21.254;2022-11-23T23:04:01;28.42;;;16.05;;
44987;SDS011;35735;52.226;21.254;2022-11-23T23:09:02;33.45;;;19.33;;
44987;SDS011;35735;52.226;21.254;2022-11-23T23:14:05;32.35;;;18.00;;
44987;SDS011;35735;52.226;21.254;2022-11-23T23:19:06;34.40;;;18.30;;
44987;SDS011;35735;52.226;21.254;2022-11-23T23:24:07;30.30;;;16.75;;
44987;SDS011;35735;52.226;21.254;2022-11-23T23:29:08;33.17;;;17.60;;
44987;SDS011;35735;52.226;21.254;2022-11-23T23:34:08;31.35;;;17.67;;
44987;SDS011;35735;52.226;21.254;2022-11-23T23:39:09;31.30;;;17.73;;
44987;SDS011;35735;52.226;21.254;2022-11-23T23:44:11;33.65;;;18.02;;
44987;SDS011;35735;52.226;21.254;2022-11-23T23:49:11;31.45;;;18.55;;
44987;SDS011;35735;52.226;21.254;2022-11-23T23:54:12;29.52;;;16.48;;
44987;SDS011;35735;52.226;21.254;2022-11-23T23:59:12;33.92;;;18.52;;
